Time,TemperatureF,DewpointF,PressureIn,WindDirection,WindDirectionDegrees,WindSpeedMPH,WindSpeedGustMPH,Humidity,HourlyPrecipIn,Conditions,Clouds,dailyrainin,SolarRadiationWatts/m^2,SoftwareType,DateUTC
2013-05-25 00:00:00,53.2,37.0,30.28,South,171,5.0,15.0,54,0.00,,SCT,0.00,0.00,VWS V14.01,2013-05-25 04:00:00,
2013-05-25 00:01:00,52.6,36.9,30.28,South,188,2.0,11.0,55,0.00,,SCT,0.00,0.00,VWS V14.01,2013-05-25 04:01:00,
2013-05-25 00:06:00,52.3,37.1,30.28,South,174,8.0,11.0,56,0.00,,SCT,0.00,0.00,VWS V14.01,2013-05-25 04:06:00,
2013-05-25 00:11:00,52.2,37.0,30.28,SSW,207,3.0,12.0,56,0.00,,SCT,0.00,0.00,VWS V14.01,2013-05-25 04:11:00,
2013-05-25 00:16:00,52.0,37.2,30.28,SSE,165,2.0,12.0,57,0.00,,SCT,0.00,0.00,VWS V14.01,2013-05-25 04:16:00,
2013-05-25 00:21:00,51.9,37.2,30.29,SE,129,2.0,12.0,57,0.00,,SCT,0.00,0.00,VWS V14.01,2013-05-25 04:21:00,
2013-05-25 00:26:00,51.8,37.1,30.29,ESE,121,2.0,12.0,57,0.00,,SCT,0.00,0.00,VWS V14.01,2013-05-25 04:26:00,
2013-05-25 00:31:00,51.6,36.9,30.29,SSE,147,0.0,12.0,57,0.00,,SCT,0.00,0.00,VWS V14.01,2013-05-25 04:31:00,
2013-05-25 00:36:00,51.4,37.1,30.29,SE,126,0.0,12.0,58,0.00,,SCT,0.00,0.00,VWS V14.01,2013-05-25 04:36:00,
2013-05-25 00:41:00,51.3,37.0,30.29,ESE,123,0.0,12.0,58,0.00,,SCT,0.00,0.00,VWS V14.01,2013-05-25 04:41:00,
2013-05-25 00:46:00,51.0,37.2,30.29,SE,126,2.0,12.0,59,0.00,,SCT,0.00,0.00,VWS V14.01,2013-05-25 04:46:00,
2013-05-25 00:51:00,50.6,37.7,30.28,SW,228,0.0,12.0,61,0.00,,SCT,0.00,0.00,VWS V14.01,2013-05-25 04:51:00,
2013-05-25 00:56:00,50.0,37.1,30.29,SW,228,0.0,0.0,61,0.00,,SCT,0.00,0.00,VWS V14.01,2013-05-25 04:56:00,
2013-05-25 01:00:00,50.2,37.7,30.28,SW,228,0.0,12.0,62,0.00,,SCT,0.00,0.00,VWS V14.01,2013-05-25 05:00:00,
2013-05-25 01:01:00,50.1,37.2,30.29,WSW,244,4.0,6.0,61,0.00,,SCT,0.00,0.00,VWS V14.01,2013-05-25 05:01:00,
2013-05-25 01:06:00,50.0,37.5,30.29,WSW,237,5.0,6.0,62,0.00,,SCT,0.00,0.00,VWS V14.01,2013-05-25 05:06:00,
2013-05-25 01:11:00,50.5,36.3,30.29,SE,144,1.0,15.0,58,0.00,,SCT,0.00,0.00,VWS V14.01,2013-05-25 05:11:00,
2013-05-25 01:16:00,50.9,36.2,30.29,ESE,113,8.0,15.0,57,0.00,,SCT,0.00,0.00,VWS V14.01,2013-05-25 05:16:00,
2013-05-25 01:21:00,51.0,35.9,30.29,SE,133,12.0,15.0,56,0.00,,SCT,0.00,0.00,VWS V14.01,2013-05-25 05:21:00,
2013-05-25 01:26:00,51.2,35.6,30.30,ESE,123,1.0,16.0,55,0.00,,SCT,0.00,0.00,VWS V14.01,2013-05-25 05:26:00,
2013-05-25 01:31:00,51.2,35.6,30.30,SE,146,8.0,16.0,55,0.00,,SCT,0.00,0.00,VWS V14.01,2013-05-25 05:31:00,
2013-05-25 01:36:00,51.1,35.5,30.29,ESE,121,6.0,16.0,55,0.00,,SCT,0.00,0.00,VWS V14.01,2013-05-25 05:36:00,
2013-05-25 01:41:00,50.9,35.3,30.29,East,96,5.0,18.0,55,0.00,,SCT,0.00,0.00,VWS V14.01,2013-05-25 05:41:00,
2013-05-25 01:46:00,50.7,35.1,30.29,SE,140,11.0,18.0,55,0.00,,SCT,0.00,0.00,VWS V14.01,2013-05-25 05:46:00,
2013-05-25 01:51:00,50.6,35.0,30.29,SSE,161,9.0,18.0,55,0.00,,SCT,0.00,0.00,VWS V14.01,2013-05-25 05:51:00,
2013-05-25 01:56:00,50.5,35.0,30.29,South,174,9.0,21.0,55,0.00,,SCT,0.00,0.00,VWS V14.01,2013-05-25 05:56:00,
2013-05-25 02:00:00,50.5,35.0,30.29,SE,130,14.0,21.0,55,0.00,,SCT,0.00,0.00,VWS V14.01,2013-05-25 06:00:00,
2013-05-25 02:01:00,50.4,34.9,30.29,SSE,155,16.0,21.0,55,0.00,,SCT,0.00,0.00,VWS V14.01,2013-05-25 06:01:00,
2013-05-25 02:06:00,50.3,34.8,30.30,SE,144,8.0,21.0,55,0.00,,SCT,0.00,0.00,VWS V14.01,2013-05-25 06:06:00,
2013-05-25 02:11:00,50.1,34.6,30.30,SE,138,12.0,21.0,55,0.00,,SCT,0.00,0.00,VWS V14.01,2013-05-25 06:11:00,
2013-05-25 02:16:00,50.0,34.5,30.30,ESE,123,8.0,21.0,55,0.00,,SCT,0.00,0.00,VWS V14.01,2013-05-25 06:16:00,
2013-05-25 02:21:00,49.9,34.4,30.30,SSE,155,13.0,21.0,55,0.00,,SCT,0.00,0.00,VWS V14.01,2013-05-25 06:21:00,
2013-05-25 02:26:00,49.8,34.3,30.30,SSE,153,10.0,21.0,55,0.00,,SCT,0.00,0.00,VWS V14.01,2013-05-25 06:26:00,
2013-05-25 02:31:00,49.6,34.6,30.29,ESE,121,11.0,21.0,56,0.00,,SCT,0.00,0.00,VWS V14.01,2013-05-25 06:31:00,
2013-05-25 02:36:00,49.6,34.1,30.30,SE,138,12.0,21.0,55,0.00,,SCT,0.00,0.00,VWS V14.01,2013-05-25 06:36:00,
2013-05-25 02:41:00,49.4,33.9,30.30,SE,146,5.0,21.0,55,0.00,,SCT,0.00,0.00,VWS V14.01,2013-05-25 06:41:00,
2013-05-25 02:46:00,49.2,34.2,30.30,South,186,6.0,21.0,56,0.00,,SCT,0.00,0.00,VWS V14.01,2013-05-25 06:46:00,
2013-05-25 02:51:00,49.0,34.0,30.31,South,175,7.0,21.0,56,0.00,,SCT,0.00,0.00,VWS V14.01,2013-05-25 06:51:00,
2013-05-25 02:56:00,48.8,34.3,30.31,SW,223,6.0,10.0,57,0.00,,SCT,0.00,0.00,VWS V14.01,2013-05-25 06:56:00,
2013-05-25 03:00:00,48.9,33.9,30.31,SW,219,4.0,21.0,56,0.00,,SCT,0.00,0.00,VWS V14.01,2013-05-25 07:00:00,
2013-05-25 03:01:00,48.7,34.2,30.31,SW,223,4.0,13.0,57,0.00,,SCT,0.00,0.00,VWS V14.01,2013-05-25 07:01:00,
2013-05-25 03:06:00,48.6,34.1,30.31,SSW,207,2.0,13.0,57,0.00,,SCT,0.00,0.00,VWS V14.01,2013-05-25 07:06:00,
2013-05-25 03:11:00,48.4,33.9,30.32,SSW,206,3.0,13.0,57,0.00,,SCT,0.00,0.00,VWS V14.01,2013-05-25 07:11:00,
2013-05-25 03:16:00,48.2,34.1,30.31,SSW,206,6.0,13.0,58,0.00,,SCT,0.00,0.00,VWS V14.01,2013-05-25 07:16:00,
2013-05-25 03:21:00,48.1,34.0,30.32,SW,230,2.0,13.0,58,0.00,,SCT,0.00,0.00,VWS V14.01,2013-05-25 07:21:00,
2013-05-25 03:26:00,47.9,33.8,30.31,SSW,203,2.0,13.0,58,0.00,,SCT,0.00,0.00,VWS V14.01,2013-05-25 07:26:00,
2013-05-25 03:31:00,47.7,34.1,30.31,SW,229,2.0,13.0,59,0.00,,SCT,0.00,0.00,VWS V14.01,2013-05-25 07:31:00,
2013-05-25 03:36:00,47.6,34.0,30.31,SSW,202,3.0,13.0,59,0.00,,SCT,0.00,0.00,VWS V14.01,2013-05-25 07:36:00,
2013-05-25 03:40:00,47.6,34.4,30.31,SSW,207,2.0,13.0,60,0.00,,SCT,0.00,0.00,VWS V14.01,2013-05-25 07:40:00,
2013-05-25 03:45:00,47.4,34.2,30.31,SSW,208,0.0,13.0,60,0.00,,SCT,0.00,0.00,VWS V14.01,2013-05-25 07:45:00,
2013-05-25 03:50:00,47.2,34.5,30.32,SW,219,1.0,13.0,61,0.00,,SCT,0.00,0.00,VWS V14.01,2013-05-25 07:50:00,
2013-05-25 03:55:00,46.9,34.6,30.32,SW,219,0.0,0.0,62,0.00,,SCT,0.00,0.00,VWS V14.01,2013-05-25 07:55:00,
2013-05-25 04:00:00,46.8,34.5,30.32,SSW,198,2.0,2.0,62,0.00,,SCT,0.00,0.00,VWS V14.01,2013-05-25 08:00:00,
2013-05-25 04:05:00,47.0,34.7,30.32,SSW,192,1.0,2.0,62,0.00,,SCT,0.00,0.00,VWS V14.01,2013-05-25 08:05:00,
2013-05-25 04:10:00,47.0,34.3,30.32,SSE,153,0.0,3.0,61,0.00,,SCT,0.00,0.00,VWS V14.01,2013-05-25 08:10:00,
2013-05-25 04:15:00,47.0,34.3,30.33,SW,236,0.0,3.0,61,0.00,,SCT,0.00,0.00,VWS V14.01,2013-05-25 08:15:00,
2013-05-25 04:20:00,47.1,34.4,30.33,SW,236,0.0,3.0,61,0.00,,SCT,0.00,0.00,VWS V14.01,2013-05-25 08:20:00,
2013-05-25 04:25:00,46.7,34.4,30.33,SW,236,0.0,3.0,62,0.00,,SCT,0.00,0.00,VWS V14.01,2013-05-25 08:25:00,
2013-05-25 04:30:00,46.5,34.6,30.33,SW,236,0.0,3.0,63,0.00,,SCT,0.00,0.00,VWS V14.01,2013-05-25 08:30:00,
2013-05-25 04:35:00,46.5,34.2,30.33,WNW,294,2.0,3.0,62,0.00,,SCT,0.00,0.00,VWS V14.01,2013-05-25 08:35:00,
2013-05-25 04:40:00,46.6,34.7,30.34,North,355,0.0,4.0,63,0.00,,SCT,0.00,0.00,VWS V14.01,2013-05-25 08:40:00,
2013-05-25 04:45:00,46.7,34.0,30.33,North,355,0.0,4.0,61,0.00,,SCT,0.00,0.00,VWS V14.01,2013-05-25 08:45:00,
2013-05-25 04:50:00,46.6,34.7,30.33,North,355,0.0,4.0,63,0.00,,SCT,0.00,0.00,VWS V14.01,2013-05-25 08:50:00,
2013-05-25 04:55:00,46.1,34.6,30.34,North,355,0.0,1.0,64,0.00,,SCT,0.00,0.00,VWS V14.01,2013-05-25 08:55:00,
2013-05-25 05:00:00,46.0,34.9,30.34,North,360,3.0,4.0,65,0.00,,SCT,0.00,0.00,VWS V14.01,2013-05-25 09:00:00,
2013-05-25 05:05:00,45.8,35.5,30.34,NE,38,4.0,5.0,67,0.00,,SCT,0.00,0.00,VWS V14.01,2013-05-25 09:05:00,
2013-05-25 05:10:00,45.6,35.7,30.34,NNE,33,2.0,5.0,68,0.00,,SCT,0.00,0.00,VWS V14.01,2013-05-25 09:10:00,
2013-05-25 05:15:00,45.5,35.2,30.34,NNE,22,3.0,5.0,67,0.00,,SCT,0.00,0.00,VWS V14.01,2013-05-25 09:15:00,
2013-05-25 05:20:00,45.5,35.2,30.35,NNE,15,2.0,5.0,67,0.00,,SCT,0.00,0.00,VWS V14.01,2013-05-25 09:20:00,
2013-05-25 05:25:00,45.2,35.3,30.35,NNE,18,4.0,5.0,68,0.00,,SCT,0.00,0.00,VWS V14.01,2013-05-25 09:25:00,
2013-05-25 05:30:00,45.5,34.8,30.35,NE,42,1.0,6.0,66,0.00,,SCT,0.00,0.00,VWS V14.01,2013-05-25 09:30:00,
2013-05-25 05:35:00,46.0,35.3,30.35,NE,43,3.0,6.0,66,0.00,,SCT,0.00,0.00,VWS V14.01,2013-05-25 09:35:00,
2013-05-25 05:40:00,46.1,35.0,30.35,NNE,21,2.0,6.0,65,0.00,,SCT,0.00,0.00,VWS V14.01,2013-05-25 09:40:00,
2013-05-25 05:45:00,46.0,35.3,30.36,NE,38,3.0,6.0,66,0.00,,SCT,0.00,0.00,VWS V14.01,2013-05-25 09:45:00,
2013-05-25 05:50:00,45.7,35.0,30.36,NE,38,0.0,6.0,66,0.00,,SCT,0.00,0.00,VWS V14.01,2013-05-25 09:50:00,
2013-05-25 05:55:00,45.6,34.9,30.36,NE,38,3.0,3.0,66,0.00,,SCT,0.00,0.00,VWS V14.01,2013-05-25 09:55:00,
2013-05-25 06:00:00,45.7,35.0,30.36,NE,38,0.0,3.0,66,0.00,,SCT,0.00,5.00,VWS V14.01,2013-05-25 10:00:00,
2013-05-25 06:05:00,45.8,34.7,30.37,NE,38,0.0,3.0,65,0.00,,SCT,0.00,7.00,VWS V14.01,2013-05-25 10:05:00,
2013-05-25 06:10:00,45.8,34.7,30.37,NE,38,1.0,3.0,65,0.00,,SCT,0.00,11.00,VWS V14.01,2013-05-25 10:10:00,
2013-05-25 06:15:00,45.7,35.4,30.37,NE,54,4.0,4.0,67,0.00,,SCT,0.00,14.00,VWS V14.01,2013-05-25 10:15:00,
2013-05-25 06:20:00,45.2,36.4,30.37,East,84,2.0,5.0,71,0.00,,SCT,0.00,19.00,VWS V14.01,2013-05-25 10:20:00,
2013-05-25 06:25:00,45.1,35.2,30.37,ENE,70,3.0,5.0,68,0.00,,SCT,0.00,25.00,VWS V14.01,2013-05-25 10:25:00,
2013-05-25 06:30:00,45.2,35.7,30.37,ENE,76,0.0,5.0,69,0.00,,SCT,0.00,32.00,VWS V14.01,2013-05-25 10:30:00,
2013-05-25 06:35:00,45.4,35.1,30.38,ENE,71,1.0,5.0,67,0.00,,SCT,0.00,42.00,VWS V14.01,2013-05-25 10:35:00,
2013-05-25 06:40:00,45.9,34.8,30.38,East,92,0.0,5.0,65,0.00,,SCT,0.00,51.00,VWS V14.01,2013-05-25 10:40:00,
2013-05-25 06:45:00,46.5,34.6,30.37,ESE,121,0.0,5.0,63,0.00,,SCT,0.00,60.00,VWS V14.01,2013-05-25 10:45:00,
2013-05-25 06:50:00,46.7,35.2,30.37,South,180,2.0,5.0,64,0.00,,SCT,0.00,62.00,VWS V14.01,2013-05-25 10:50:00,
2013-05-25 06:55:00,47.0,34.7,30.38,SSE,165,0.0,1.0,62,0.00,,SCT,0.00,58.00,VWS V14.01,2013-05-25 10:55:00,
2013-05-25 07:00:00,47.2,34.9,30.38,SSW,196,3.0,5.0,62,0.00,,SCT,0.00,49.00,VWS V14.01,2013-05-25 11:00:00,
2013-05-25 07:05:00,47.2,35.3,30.38,SE,146,4.0,5.0,63,0.00,,SCT,0.00,40.00,VWS V14.01,2013-05-25 11:05:00,
2013-05-25 07:10:00,47.3,35.0,30.38,SE,126,0.0,6.0,62,0.00,,SCT,0.00,35.00,VWS V14.01,2013-05-25 11:10:00,
2013-05-25 07:15:00,47.4,35.5,30.38,SSE,150,1.0,6.0,63,0.00,,SCT,0.00,33.00,VWS V14.01,2013-05-25 11:15:00,
2013-05-25 07:20:00,47.4,35.5,30.38,ESE,111,0.0,6.0,63,0.00,,SCT,0.00,33.00,VWS V14.01,2013-05-25 11:20:00,
2013-05-25 07:25:00,47.4,35.5,30.38,ESE,111,0.0,6.0,63,0.00,,SCT,0.00,33.00,VWS V14.01,2013-05-25 11:25:00,
2013-05-25 07:30:00,47.4,35.5,30.38,ESE,111,0.0,6.0,63,0.00,,SCT,0.00,33.00,VWS V14.01,2013-05-25 11:30:00,
2013-05-25 07:35:00,48.0,36.4,30.38,East,85,0.0,6.0,64,0.00,,SCT,0.00,39.00,VWS V14.01,2013-05-25 11:35:00,
2013-05-25 07:40:00,48.2,36.2,30.38,ENE,63,0.0,6.0,63,0.00,,SCT,0.00,39.00,VWS V14.01,2013-05-25 11:40:00,
2013-05-25 07:45:00,48.3,36.3,30.38,ENE,63,2.0,6.0,63,0.00,,SCT,0.00,39.00,VWS V14.01,2013-05-25 11:45:00,
2013-05-25 07:50:00,48.7,36.3,30.38,NE,48,3.0,6.0,62,0.00,,SCT,0.00,40.00,VWS V14.01,2013-05-25 11:50:00,
2013-05-25 07:55:00,48.8,36.8,30.38,ENE,61,3.0,5.0,63,0.00,,SCT,0.00,40.00,VWS V14.01,2013-05-25 11:55:00,
2013-05-25 08:00:00,49.1,37.1,30.38,NE,44,3.0,5.0,63,0.00,,SCT,0.00,42.00,VWS V14.01,2013-05-25 12:00:00,
2013-05-25 08:05:00,49.4,37.3,30.38,NE,38,5.0,7.0,63,0.00,,SCT,0.00,42.00,VWS V14.01,2013-05-25 12:05:00,
2013-05-25 08:10:00,49.6,37.5,30.38,ENE,57,1.0,7.0,63,0.00,,SCT,0.00,42.00,VWS V14.01,2013-05-25 12:10:00,
2013-05-25 08:15:00,50.0,37.1,30.38,ENE,63,0.0,7.0,61,0.00,,SCT,0.00,42.00,VWS V14.01,2013-05-25 12:15:00,
2013-05-25 08:20:00,50.4,37.9,30.38,ENE,65,0.0,7.0,62,0.00,,SCT,0.00,44.00,VWS V14.01,2013-05-25 12:20:00,
2013-05-25 08:25:00,51.0,36.8,30.37,East,96,1.0,7.0,58,0.00,,SCT,0.00,44.00,VWS V14.01,2013-05-25 12:25:00,
2013-05-25 08:30:00,51.2,35.6,30.37,East,87,1.0,7.0,55,0.00,,SCT,0.00,46.00,VWS V14.01,2013-05-25 12:30:00,
2013-05-25 08:35:00,51.4,36.2,30.37,ESE,120,5.0,9.0,56,0.00,,SCT,0.00,54.00,VWS V14.01,2013-05-25 12:35:00,
2013-05-25 08:40:00,51.4,36.2,30.37,ENE,72,3.0,10.0,56,0.00,,SCT,0.00,86.00,VWS V14.01,2013-05-25 12:40:00,
2013-05-25 08:45:00,51.3,35.7,30.37,ESE,112,5.0,10.0,55,0.00,,SCT,0.00,153.00,VWS V14.01,2013-05-25 12:45:00,
2013-05-25 08:50:00,51.6,36.4,30.36,ESE,119,5.0,10.0,56,0.00,,SCT,0.00,255.00,VWS V14.01,2013-05-25 12:50:00,
2013-05-25 08:55:00,52.1,36.0,30.36,ESE,123,5.0,9.0,54,0.00,,SCT,0.00,431.00,VWS V14.01,2013-05-25 12:55:00,
2013-05-25 09:00:00,52.0,35.9,30.36,East,96,7.0,15.0,54,0.00,,SCT,0.00,504.00,VWS V14.01,2013-05-25 13:00:00,
2013-05-25 09:05:00,51.9,35.3,30.36,East,100,5.0,15.0,53,0.00,,SCT,0.00,373.00,VWS V14.01,2013-05-25 13:05:00,
2013-05-25 09:10:00,51.9,36.3,30.35,ENE,69,7.0,15.0,55,0.00,,SCT,0.00,432.00,VWS V14.01,2013-05-25 13:10:00,
2013-05-25 09:15:00,52.1,35.5,30.35,ENE,74,6.0,15.0,53,0.00,,SCT,0.00,371.00,VWS V14.01,2013-05-25 13:15:00,
2013-05-25 09:20:00,52.4,35.8,30.35,East,86,3.0,15.0,53,0.00,,SCT,0.00,392.00,VWS V14.01,2013-05-25 13:20:00,
2013-05-25 09:25:00,52.3,35.2,30.35,ENE,68,7.0,15.0,52,0.00,,SCT,0.00,345.00,VWS V14.01,2013-05-25 13:25:00,
2013-05-25 09:30:00,52.2,36.1,30.35,NE,53,2.0,15.0,54,0.00,,SCT,0.00,353.00,VWS V14.01,2013-05-25 13:30:00,
2013-05-25 09:35:00,52.4,35.3,30.35,SE,132,6.0,15.0,52,0.00,,SCT,0.00,448.00,VWS V14.01,2013-05-25 13:35:00,
2013-05-25 09:40:00,52.9,36.2,30.34,East,101,4.0,15.0,53,0.00,,SCT,0.00,385.00,VWS V14.01,2013-05-25 13:40:00,
2013-05-25 09:45:00,53.0,36.3,30.34,ENE,76,6.0,15.0,53,0.00,,SCT,0.00,364.00,VWS V14.01,2013-05-25 13:45:00,
2013-05-25 09:50:00,52.2,36.1,30.34,ENE,59,5.0,15.0,54,0.00,,SCT,0.00,341.00,VWS V14.01,2013-05-25 13:50:00,
2013-05-25 09:55:00,52.6,36.0,30.34,ENE,57,7.0,8.0,53,0.00,,SCT,0.00,343.00,VWS V14.01,2013-05-25 13:55:00,
2013-05-25 10:00:00,52.4,36.3,30.34,NE,50,2.0,8.0,54,0.00,,SCT,0.00,364.00,VWS V14.01,2013-05-25 14:00:00,
2013-05-25 10:05:00,52.7,37.0,30.34,East,86,5.0,8.0,55,0.00,,SCT,0.00,376.00,VWS V14.01,2013-05-25 14:05:00,
2013-05-25 10:10:00,53.0,36.8,30.34,ENE,75,4.0,8.0,54,0.00,,SCT,0.00,380.00,VWS V14.01,2013-05-25 14:10:00,
2013-05-25 10:15:00,53.1,36.9,30.34,ENE,62,2.0,8.0,54,0.00,,SCT,0.00,374.00,VWS V14.01,2013-05-25 14:15:00,
2013-05-25 10:20:00,52.9,36.2,30.34,ENE,76,2.0,8.0,53,0.00,,SCT,0.00,329.00,VWS V14.01,2013-05-25 14:20:00,
2013-05-25 10:25:00,52.9,35.8,30.33,ENE,74,2.0,8.0,52,0.00,,SCT,0.00,329.00,VWS V14.01,2013-05-25 14:25:00,
2013-05-25 10:30:00,52.8,35.2,30.33,East,88,3.0,8.0,51,0.00,,SCT,0.00,308.00,VWS V14.01,2013-05-25 14:30:00,
2013-05-25 10:35:00,52.8,37.1,30.33,ENE,76,6.0,8.0,55,0.00,,SCT,0.00,336.00,VWS V14.01,2013-05-25 14:35:00,
2013-05-25 10:40:00,53.0,36.8,30.33,East,82,3.0,8.0,54,0.00,,SCT,0.00,316.00,VWS V14.01,2013-05-25 14:40:00,
2013-05-25 10:45:00,53.4,36.2,30.33,East,86,0.0,8.0,52,0.00,,SCT,0.00,308.00,VWS V14.01,2013-05-25 14:45:00,
2013-05-25 10:50:00,54.1,36.4,30.33,East,95,0.0,8.0,51,0.00,,SCT,0.00,366.00,VWS V14.01,2013-05-25 14:50:00,
2013-05-25 10:55:00,54.1,36.9,30.33,NE,51,1.0,3.0,52,0.00,,SCT,0.00,396.00,VWS V14.01,2013-05-25 14:55:00,
2013-05-25 11:00:00,54.0,37.3,30.33,NNE,12,3.0,7.0,53,0.00,,SCT,0.00,404.00,VWS V14.01,2013-05-25 15:00:00,
2013-05-25 11:05:00,53.8,37.6,30.33,NNW,338,4.0,7.0,54,0.00,,SCT,0.00,464.00,VWS V14.01,2013-05-25 15:05:00,
2013-05-25 11:10:00,53.8,37.1,30.33,NW,313,3.0,7.0,53,0.00,,SCT,0.00,508.00,VWS V14.01,2013-05-25 15:10:00,
2013-05-25 11:15:00,54.7,37.9,30.33,North,5,0.0,7.0,53,0.00,,SCT,0.00,596.00,VWS V14.01,2013-05-25 15:15:00,
2013-05-25 11:20:00,55.2,38.4,30.32,NW,320,0.0,7.0,53,0.00,,SCT,0.00,647.00,VWS V14.01,2013-05-25 15:20:00,
2013-05-25 11:25:00,56.1,38.2,30.33,NNE,19,5.0,7.0,51,0.00,,SCT,0.00,849.00,VWS V14.01,2013-05-25 15:25:00,
2013-05-25 11:30:00,56.4,40.0,30.32,WNW,294,4.0,7.0,54,0.00,,SCT,0.00,888.00,VWS V14.01,2013-05-25 15:30:00,
2013-05-25 11:35:00,57.7,39.2,30.32,ENE,67,6.0,9.0,50,0.00,,SCT,0.00,881.00,VWS V14.01,2013-05-25 15:35:00,
2013-05-25 11:40:00,57.9,39.4,30.32,East,82,3.0,9.0,50,0.00,,SCT,0.00,984.00,VWS V14.01,2013-05-25 15:40:00,
2013-05-25 11:45:00,58.1,39.6,30.32,NE,42,6.0,9.0,50,0.00,,SCT,0.00,684.00,VWS V14.01,2013-05-25 15:45:00,
2013-05-25 11:50:00,58.5,39.9,30.32,NW,311,4.0,9.0,50,0.00,,SCT,0.00,761.00,VWS V14.01,2013-05-25 15:50:00,
2013-05-25 11:55:00,59.0,39.9,30.32,NE,48,0.0,2.0,49,0.00,,SCT,0.00,585.00,VWS V14.01,2013-05-25 15:55:00,
2013-05-25 12:00:00,59.7,41.6,30.32,North,360,0.0,3.0,51,0.00,,SCT,0.00,543.00,VWS V14.01,2013-05-25 16:00:00,
2013-05-25 12:05:00,60.2,38.8,30.32,North,9,7.0,8.0,45,0.00,,SCT,0.00,504.00,VWS V14.01,2013-05-25 16:05:00,
2013-05-25 12:10:00,59.7,38.9,30.32,NNE,32,5.0,8.0,46,0.00,,SCT,0.00,853.00,VWS V14.01,2013-05-25 16:10:00,
2013-05-25 12:15:00,60.4,39.0,30.31,ESE,115,7.0,8.0,45,0.00,,SCT,0.00,661.00,VWS V14.01,2013-05-25 16:15:00,
2013-05-25 12:20:00,61.1,38.5,30.31,East,97,4.0,9.0,43,0.00,,SCT,0.00,504.00,VWS V14.01,2013-05-25 16:20:00,
2013-05-25 12:25:00,61.3,37.4,30.31,ESE,114,6.0,9.0,41,0.00,,SCT,0.00,501.00,VWS V14.01,2013-05-25 16:25:00,
2013-05-25 12:30:00,61.3,37.4,30.31,ESE,114,6.0,9.0,41,0.00,,SCT,0.00,501.00,VWS V14.01,2013-05-25 16:30:00,
2013-05-25 12:35:00,62.2,35.6,30.30,East,86,1.0,9.0,37,0.00,,SCT,0.00,494.00,VWS V14.01,2013-05-25 16:35:00,
2013-05-25 12:40:00,62.3,36.4,30.30,ENE,70,3.0,9.0,38,0.00,,SCT,0.00,993.00,VWS V14.01,2013-05-25 16:40:00,
2013-05-25 12:45:00,64.0,36.5,30.30,East,79,5.0,9.0,36,0.00,,SCT,0.00,951.00,VWS V14.01,2013-05-25 16:45:00,
2013-05-25 12:50:00,64.4,37.6,30.30,East,88,6.0,11.0,37,0.00,,SCT,0.00,939.00,VWS V14.01,2013-05-25 16:50:00,
2013-05-25 12:55:00,64.0,36.5,30.30,East,90,4.0,7.0,36,0.00,,SCT,0.00,935.00,VWS V14.01,2013-05-25 16:55:00,
2013-05-25 13:00:00,64.2,37.4,30.29,East,99,4.0,7.0,37,0.00,,SCT,0.00,933.00,VWS V14.01,2013-05-25 17:00:00,
2013-05-25 13:05:00,64.2,36.7,30.29,SE,134,2.0,7.0,36,0.00,,SCT,0.00,932.00,VWS V14.01,2013-05-25 17:05:00,
2013-05-25 13:10:00,64.3,39.5,30.29,SW,232,4.0,7.0,40,0.00,,SCT,0.00,149.00,VWS V14.01,2013-05-25 17:10:00,
2013-05-25 13:15:00,63.9,40.4,30.29,SSW,196,2.0,8.0,42,0.00,,SCT,0.00,930.00,VWS V14.01,2013-05-25 17:15:00,
2013-05-25 13:20:00,64.1,37.3,30.29,SW,215,2.0,11.0,37,0.00,,SCT,0.00,925.00,VWS V14.01,2013-05-25 17:20:00,
2013-05-25 13:25:00,65.0,40.8,30.29,South,190,6.0,11.0,41,0.00,,SCT,0.00,854.00,VWS V14.01,2013-05-25 17:25:00,
2013-05-25 13:30:00,65.3,35.5,30.28,East,99,6.0,14.0,33,0.00,,SCT,0.00,909.00,VWS V14.01,2013-05-25 17:30:00,
2013-05-25 13:35:00,66.2,36.3,30.28,SE,146,5.0,14.0,33,0.00,,SCT,0.00,933.00,VWS V14.01,2013-05-25 17:35:00,
2013-05-25 13:40:00,68.0,36.3,30.28,East,99,14.0,15.0,31,0.00,,SCT,0.00,935.00,VWS V14.01,2013-05-25 17:40:00,
2013-05-25 13:45:00,67.5,36.6,30.27,SE,133,12.0,15.0,32,0.00,,SCT,0.00,930.00,VWS V14.01,2013-05-25 17:45:00,
2013-05-25 13:49:00,67.8,36.1,30.27,ESE,121,13.0,18.0,31,0.00,,SCT,0.00,925.00,VWS V14.01,2013-05-25 17:49:00,
2013-05-25 13:54:00,67.5,35.8,30.27,ESE,121,13.0,16.0,31,0.00,,SCT,0.00,916.00,VWS V14.01,2013-05-25 17:54:00,
2013-05-25 13:59:00,67.2,33.9,30.27,SE,130,17.0,17.0,29,0.00,,SCT,0.00,905.00,VWS V14.01,2013-05-25 17:59:00,
2013-05-25 14:00:00,67.6,35.1,30.27,ESE,107,14.0,18.0,30,0.00,,SCT,0.00,919.00,VWS V14.01,2013-05-25 18:00:00,
2013-05-25 14:04:00,67.1,33.8,30.27,ESE,107,9.0,17.0,29,0.00,,SCT,0.00,856.00,VWS V14.01,2013-05-25 18:04:00,
2013-05-25 14:09:00,67.1,34.7,30.27,ESE,106,7.0,17.0,30,0.00,,SCT,0.00,795.00,VWS V14.01,2013-05-25 18:09:00,
2013-05-25 14:14:00,67.7,36.0,30.26,ENE,67,5.0,17.0,31,0.00,,SCT,0.00,893.00,VWS V14.01,2013-05-25 18:14:00,
2013-05-25 14:19:00,68.4,35.8,30.26,East,92,11.0,17.0,30,0.00,,SCT,0.00,891.00,VWS V14.01,2013-05-25 18:19:00,
2013-05-25 14:24:00,68.1,33.8,30.26,East,80,8.0,20.0,28,0.00,,SCT,0.00,881.00,VWS V14.01,2013-05-25 18:24:00,
2013-05-25 14:29:00,68.5,34.1,30.25,East,88,13.0,21.0,28,0.00,,SCT,0.00,875.00,VWS V14.01,2013-05-25 18:29:00,
2013-05-25 14:34:00,68.7,35.2,30.25,ENE,67,12.0,21.0,29,0.00,,SCT,0.00,874.00,VWS V14.01,2013-05-25 18:34:00,
2013-05-25 14:39:00,69.5,35.9,30.25,East,92,12.0,21.0,29,0.00,,SCT,0.00,867.00,VWS V14.01,2013-05-25 18:39:00,
2013-05-25 14:44:00,69.1,32.8,30.25,ENE,78,10.0,21.0,26,0.00,,SCT,0.00,858.00,VWS V14.01,2013-05-25 18:44:00,
2013-05-25 14:49:00,69.4,33.1,30.25,ESE,106,8.0,21.0,26,0.00,,SCT,0.00,853.00,VWS V14.01,2013-05-25 18:49:00,
2013-05-25 14:54:00,69.7,29.2,30.24,East,94,15.0,26.0,22,0.00,,SCT,0.00,846.00,VWS V14.01,2013-05-25 18:54:00,
2013-05-25 14:59:00,69.8,27.0,30.24,East,90,15.0,26.0,20,0.00,,SCT,0.00,842.00,VWS V14.01,2013-05-25 18:59:00,
2013-05-25 15:00:00,69.7,29.2,30.25,SE,146,10.0,27.0,22,0.00,,SCT,0.00,844.00,VWS V14.01,2013-05-25 19:00:00,
2013-05-25 15:04:00,69.9,27.0,30.24,ESE,111,18.0,26.0,20,0.00,,SCT,0.00,835.00,VWS V14.01,2013-05-25 19:04:00,
2013-05-25 15:09:00,69.9,28.2,30.24,East,100,16.0,29.0,21,0.00,,SCT,0.00,830.00,VWS V14.01,2013-05-25 19:09:00,
2013-05-25 15:14:00,70.3,28.5,30.24,East,90,18.0,29.0,21,0.00,,SCT,0.00,819.00,VWS V14.01,2013-05-25 19:14:00,
2013-05-25 15:19:00,70.2,29.6,30.23,SE,138,11.0,29.0,22,0.00,,SCT,0.00,812.00,VWS V14.01,2013-05-25 19:19:00,
2013-05-25 15:24:00,70.6,29.9,30.23,SE,128,9.0,29.0,22,0.00,,SCT,0.00,805.00,VWS V14.01,2013-05-25 19:24:00,
2013-05-25 15:29:00,70.5,27.5,30.23,East,96,14.0,29.0,20,0.00,,SCT,0.00,798.00,VWS V14.01,2013-05-25 19:29:00,
2013-05-25 15:34:00,70.2,27.3,30.23,ESE,103,19.0,29.0,20,0.00,,SCT,0.00,784.00,VWS V14.01,2013-05-25 19:34:00,
2013-05-25 15:39:00,70.4,27.5,30.23,East,96,14.0,29.0,20,0.00,,SCT,0.00,745.00,VWS V14.01,2013-05-25 19:39:00,
2013-05-25 15:44:00,70.7,30.0,30.23,ESE,102,7.0,29.0,22,0.00,,SCT,0.00,754.00,VWS V14.01,2013-05-25 19:44:00,
2013-05-25 15:49:00,70.9,29.0,30.23,East,100,11.0,29.0,21,0.00,,SCT,0.00,765.00,VWS V14.01,2013-05-25 19:49:00,
2013-05-25 15:54:00,70.6,28.8,30.23,East,86,4.0,13.0,21,0.00,,SCT,0.00,510.00,VWS V14.01,2013-05-25 19:54:00,
2013-05-25 15:59:00,71.1,30.4,30.23,East,88,13.0,21.0,22,0.00,,SCT,0.00,740.00,VWS V14.01,2013-05-25 19:59:00,
2013-05-25 16:00:00,70.6,29.9,30.23,ENE,76,13.0,29.0,22,0.00,,SCT,0.00,621.00,VWS V14.01,2013-05-25 20:00:00,
2013-05-25 16:04:00,70.6,26.4,30.23,East,97,18.0,26.0,19,0.00,,SCT,0.00,737.00,VWS V14.01,2013-05-25 20:04:00,
2013-05-25 16:09:00,70.7,27.7,30.24,ESE,114,18.0,26.0,20,0.00,,SCT,0.00,679.00,VWS V14.01,2013-05-25 20:09:00,
2013-05-25 16:14:00,70.7,26.5,30.24,ESE,107,9.0,26.0,19,0.00,,SCT,0.00,578.00,VWS V14.01,2013-05-25 20:14:00,
2013-05-25 16:19:00,70.4,28.6,30.23,ESE,114,14.0,26.0,21,0.00,,SCT,0.00,621.00,VWS V14.01,2013-05-25 20:19:00,
2013-05-25 16:24:00,70.3,27.4,30.23,SE,136,17.0,26.0,20,0.00,,SCT,0.00,689.00,VWS V14.01,2013-05-25 20:24:00,
2013-05-25 16:29:00,70.3,28.5,30.23,SE,125,14.0,26.0,21,0.00,,SCT,0.00,663.00,VWS V14.01,2013-05-25 20:29:00,
2013-05-25 16:34:00,70.7,31.1,30.23,East,86,6.0,26.0,23,0.00,,SCT,0.00,649.00,VWS V14.01,2013-05-25 20:34:00,
2013-05-25 16:39:00,70.7,27.7,30.23,ESE,111,14.0,26.0,20,0.00,,SCT,0.00,621.00,VWS V14.01,2013-05-25 20:39:00,
2013-05-25 16:44:00,70.7,30.0,30.23,East,92,16.0,26.0,22,0.00,,SCT,0.00,613.00,VWS V14.01,2013-05-25 20:44:00,
2013-05-25 16:49:00,70.4,28.6,30.23,East,97,15.0,26.0,21,0.00,,SCT,0.00,608.00,VWS V14.01,2013-05-25 20:49:00,
2013-05-25 16:54:00,70.2,28.5,30.23,East,96,8.0,23.0,21,0.00,,SCT,0.00,591.00,VWS V14.01,2013-05-25 20:54:00,
2013-05-25 16:59:00,70.3,29.7,30.23,SSE,156,18.0,24.0,22,0.00,,SCT,0.00,571.00,VWS V14.01,2013-05-25 20:59:00,
2013-05-25 17:00:00,70.2,29.6,30.23,ESE,108,14.0,26.0,22,0.00,,SCT,0.00,598.00,VWS V14.01,2013-05-25 21:00:00,
2013-05-25 17:04:00,70.1,29.5,30.23,SE,144,9.0,27.0,22,0.00,,SCT,0.00,554.00,VWS V14.01,2013-05-25 21:04:00,
2013-05-25 17:09:00,70.0,29.4,30.23,SE,124,16.0,27.0,22,0.00,,SCT,0.00,536.00,VWS V14.01,2013-05-25 21:09:00,
2013-05-25 17:14:00,69.7,30.3,30.23,ESE,119,7.0,27.0,23,0.00,,SCT,0.00,513.00,VWS V14.01,2013-05-25 21:14:00,
2013-05-25 17:19:00,69.8,32.4,30.23,ESE,103,18.0,27.0,25,0.00,,SCT,0.00,501.00,VWS V14.01,2013-05-25 21:19:00,
2013-05-25 17:24:00,69.8,31.4,30.23,ESE,103,19.0,27.0,24,0.00,,SCT,0.00,483.00,VWS V14.01,2013-05-25 21:24:00,
2013-05-25 17:29:00,69.8,31.4,30.23,SE,136,12.0,27.0,24,0.00,,SCT,0.00,468.00,VWS V14.01,2013-05-25 21:29:00,
2013-05-25 17:34:00,69.7,33.3,30.23,ESE,107,9.0,27.0,26,0.00,,SCT,0.00,452.00,VWS V14.01,2013-05-25 21:34:00,
2013-05-25 17:39:00,70.0,31.6,30.23,ESE,107,12.0,27.0,24,0.00,,SCT,0.00,434.00,VWS V14.01,2013-05-25 21:39:00,
2013-05-25 17:44:00,69.8,33.4,30.23,East,86,7.0,27.0,26,0.00,,SCT,0.00,418.00,VWS V14.01,2013-05-25 21:44:00,
2013-05-25 17:49:00,69.8,33.4,30.23,ESE,114,14.0,27.0,26,0.00,,SCT,0.00,396.00,VWS V14.01,2013-05-25 21:49:00,
2013-05-25 17:54:00,69.8,34.3,30.23,ENE,74,17.0,18.0,27,0.00,,SCT,0.00,385.00,VWS V14.01,2013-05-25 21:54:00,
2013-05-25 17:59:00,69.6,33.2,30.23,East,99,15.0,23.0,26,0.00,,SCT,0.00,380.00,VWS V14.01,2013-05-25 21:59:00,
2013-05-25 18:00:00,69.8,33.4,30.23,ESE,115,12.0,27.0,26,0.00,,SCT,0.00,390.00,VWS V14.01,2013-05-25 22:00:00,
2013-05-25 18:04:00,69.4,32.1,30.22,ENE,60,15.0,23.0,25,0.00,,SCT,0.00,360.00,VWS V14.01,2013-05-25 22:04:00,
2013-05-25 18:09:00,69.5,33.1,30.23,ESE,123,13.0,23.0,26,0.00,,SCT,0.00,279.00,VWS V14.01,2013-05-25 22:09:00,
2013-05-25 18:14:00,69.4,33.1,30.23,East,89,7.0,23.0,26,0.00,,SCT,0.00,327.00,VWS V14.01,2013-05-25 22:14:00,
2013-05-25 18:19:00,69.5,33.1,30.23,SE,140,14.0,23.0,26,0.00,,SCT,0.00,308.00,VWS V14.01,2013-05-25 22:19:00,
2013-05-25 18:24:00,69.3,33.0,30.23,ESE,118,15.0,23.0,26,0.00,,SCT,0.00,299.00,VWS V14.01,2013-05-25 22:24:00,
2013-05-25 18:29:00,69.0,32.7,30.23,East,97,9.0,23.0,26,0.00,,SCT,0.00,287.00,VWS V14.01,2013-05-25 22:29:00,
2013-05-25 18:34:00,68.9,32.6,30.23,East,90,8.0,23.0,26,0.00,,SCT,0.00,258.00,VWS V14.01,2013-05-25 22:34:00,
2013-05-25 18:39:00,68.8,33.5,30.23,SSE,159,6.0,23.0,27,0.00,,SCT,0.00,209.00,VWS V14.01,2013-05-25 22:39:00,
2013-05-25 18:44:00,68.6,33.3,30.23,ESE,111,8.0,23.0,27,0.00,,SCT,0.00,230.00,VWS V14.01,2013-05-25 22:44:00,
2013-05-25 18:49:00,68.5,34.1,30.23,ESE,119,11.0,24.0,28,0.00,,SCT,0.00,207.00,VWS V14.01,2013-05-25 22:49:00,
2013-05-25 18:54:00,68.4,34.0,30.24,ESE,102,5.0,12.0,28,0.00,,SCT,0.00,165.00,VWS V14.01,2013-05-25 22:54:00,
2013-05-25 18:59:00,68.4,35.8,30.24,East,101,2.0,14.0,30,0.00,,SCT,0.00,163.00,VWS V14.01,2013-05-25 22:59:00,
2013-05-25 19:00:00,68.5,34.1,30.24,SE,142,10.0,24.0,28,0.00,,SCT,0.00,174.00,VWS V14.01,2013-05-25 23:00:00,
2013-05-25 19:04:00,68.3,34.0,30.24,SSE,163,7.0,14.0,28,0.00,,SCT,0.00,109.00,VWS V14.01,2013-05-25 23:04:00,
2013-05-25 19:09:00,68.1,32.9,30.25,East,90,6.0,18.0,27,0.00,,SCT,0.00,81.00,VWS V14.01,2013-05-25 23:09:00,
2013-05-25 19:14:00,67.9,33.6,30.24,East,90,4.0,18.0,28,0.00,,SCT,0.00,102.00,VWS V14.01,2013-05-25 23:14:00,
2013-05-25 19:19:00,67.6,33.4,30.25,SE,140,4.0,18.0,28,0.00,,SCT,0.00,95.00,VWS V14.01,2013-05-25 23:19:00,
2013-05-25 19:24:00,67.5,34.2,30.26,East,83,6.0,18.0,29,0.00,,SCT,0.00,81.00,VWS V14.01,2013-05-25 23:24:00,
2013-05-25 19:29:00,67.5,34.2,30.26,East,83,6.0,18.0,29,0.00,,SCT,0.00,81.00,VWS V14.01,2013-05-25 23:29:00,
2013-05-25 19:34:00,67.0,33.7,30.26,SE,132,2.0,18.0,29,0.00,,SCT,0.00,54.00,VWS V14.01,2013-05-25 23:34:00,
2013-05-25 19:39:00,67.0,34.6,30.26,SE,142,9.0,18.0,30,0.00,,SCT,0.00,42.00,VWS V14.01,2013-05-25 23:39:00,
2013-05-25 19:44:00,66.7,35.1,30.26,ESE,104,1.0,18.0,31,0.00,,SCT,0.00,30.00,VWS V14.01,2013-05-25 23:44:00,
2013-05-25 19:49:00,66.5,35.0,30.26,ESE,110,6.0,18.0,31,0.00,,SCT,0.00,30.00,VWS V14.01,2013-05-25 23:49:00,
2013-05-25 19:54:00,66.3,34.8,30.26,ESE,115,5.0,8.0,31,0.00,,SCT,0.00,37.00,VWS V14.01,2013-05-25 23:54:00,
2013-05-25 19:59:00,66.2,35.5,30.25,SE,128,5.0,11.0,32,0.00,,SCT,0.00,37.00,VWS V14.01,2013-05-25 23:59:00,
2013-05-25 20:00:00,66.4,34.9,30.26,ESE,111,5.0,18.0,31,0.00,,SCT,0.00,32.00,VWS V14.01,2013-05-26 00:00:00,
2013-05-25 20:04:00,66.0,35.3,30.26,ESE,105,7.0,13.0,32,0.00,,SCT,0.00,26.00,VWS V14.01,2013-05-26 00:04:00,
2013-05-25 20:09:00,65.8,35.9,30.26,SE,143,6.0,13.0,33,0.00,,SCT,0.00,12.00,VWS V14.01,2013-05-26 00:09:00,
2013-05-25 20:14:00,65.5,35.7,30.26,ESE,108,6.0,13.0,33,0.00,,SCT,0.00,7.00,VWS V14.01,2013-05-26 00:14:00,
2013-05-25 20:19:00,65.2,35.4,30.25,ESE,113,8.0,13.0,33,0.00,,SCT,0.00,5.00,VWS V14.01,2013-05-26 00:19:00,
2013-05-25 20:24:00,64.9,35.9,30.26,SSE,148,2.0,13.0,34,0.00,,SCT,0.00,0.00,VWS V14.01,2013-05-26 00:24:00,
2013-05-25 20:29:00,64.6,36.3,30.26,SSE,161,0.0,13.0,35,0.00,,SCT,0.00,0.00,VWS V14.01,2013-05-26 00:29:00,
2013-05-25 20:34:00,64.1,36.6,30.26,SE,129,0.0,13.0,36,0.00,,SCT,0.00,0.00,VWS V14.01,2013-05-26 00:34:00,
2013-05-25 20:39:00,63.7,36.3,30.26,SSE,163,1.0,13.0,36,0.00,,SCT,0.00,0.00,VWS V14.01,2013-05-26 00:39:00,
2013-05-25 20:44:00,63.6,36.2,30.26,SSW,192,2.0,13.0,36,0.00,,SCT,0.00,0.00,VWS V14.01,2013-05-26 00:44:00,
2013-05-25 20:49:00,63.6,36.9,30.27,SSW,195,4.0,13.0,37,0.00,,SCT,0.00,0.00,VWS V14.01,2013-05-26 00:49:00,
2013-05-25 20:54:00,63.5,36.8,30.26,South,173,4.0,4.0,37,0.00,,SCT,0.00,0.00,VWS V14.01,2013-05-26 00:54:00,
2013-05-25 20:59:00,63.3,36.6,30.26,SE,125,4.0,7.0,37,0.00,,SCT,0.00,0.00,VWS V14.01,2013-05-26 00:59:00,
2013-05-25 21:00:00,63.6,36.9,30.26,South,183,1.0,13.0,37,0.00,,SCT,0.00,0.00,VWS V14.01,2013-05-26 01:00:00,
2013-05-25 21:04:00,63.2,37.2,30.26,ESE,106,6.0,8.0,38,0.00,,SCT,0.00,0.00,VWS V14.01,2013-05-26 01:04:00,
2013-05-25 21:09:00,63.1,37.8,30.26,ESE,120,4.0,8.0,39,0.00,,SCT,0.00,0.00,VWS V14.01,2013-05-26 01:09:00,
2013-05-25 21:14:00,62.7,37.4,30.26,ESE,121,6.0,8.0,39,0.00,,SCT,0.00,0.00,VWS V14.01,2013-05-26 01:14:00,
2013-05-25 21:19:00,62.3,37.7,30.26,ESE,123,0.0,8.0,40,0.00,,SCT,0.00,0.00,VWS V14.01,2013-05-26 01:19:00,
2013-05-25 21:24:00,61.8,38.5,30.27,ESE,123,0.0,8.0,42,0.00,,SCT,0.00,0.00,VWS V14.01,2013-05-26 01:24:00,
2013-05-25 21:29:00,61.2,38.5,30.27,NNE,20,2.0,8.0,43,0.00,,SCT,0.00,0.00,VWS V14.01,2013-05-26 01:29:00,
2013-05-25 21:34:00,61.3,38.0,30.27,NNW,331,3.0,8.0,42,0.00,,SCT,0.00,0.00,VWS V14.01,2013-05-26 01:34:00,
2013-05-25 21:39:00,60.9,37.7,30.28,NW,325,3.0,8.0,42,0.00,,SCT,0.00,0.00,VWS V14.01,2013-05-26 01:39:00,
2013-05-25 21:44:00,61.1,37.9,30.28,NW,325,0.0,8.0,42,0.00,,SCT,0.00,0.00,VWS V14.01,2013-05-26 01:44:00,
2013-05-25 21:49:00,61.0,37.8,30.28,NW,325,0.0,8.0,42,0.00,,SCT,0.00,0.00,VWS V14.01,2013-05-26 01:49:00,
2013-05-25 21:54:00,60.9,38.3,30.28,NW,325,1.0,1.0,43,0.00,,SCT,0.00,0.00,VWS V14.01,2013-05-26 01:54:00,
2013-05-25 21:59:00,60.9,38.3,30.28,NW,325,1.0,1.0,43,0.00,,SCT,0.00,0.00,VWS V14.01,2013-05-26 01:59:00,
2013-05-25 22:00:00,60.9,38.3,30.28,NW,325,1.0,8.0,43,0.00,,SCT,0.00,0.00,VWS V14.01,2013-05-26 02:00:00,
2013-05-25 22:04:00,60.8,38.2,30.29,NW,323,1.0,1.0,43,0.00,,SCT,0.00,0.00,VWS V14.01,2013-05-26 02:04:00,
2013-05-25 22:09:00,60.9,37.7,30.29,NW,323,0.0,1.0,42,0.00,,SCT,0.00,0.00,VWS V14.01,2013-05-26 02:09:00,
2013-05-25 22:14:00,60.8,38.2,30.29,North,355,2.0,4.0,43,0.00,,SCT,0.00,0.00,VWS V14.01,2013-05-26 02:14:00,
2013-05-25 22:19:00,60.9,37.7,30.29,ENE,67,3.0,4.0,42,0.00,,SCT,0.00,0.00,VWS V14.01,2013-05-26 02:19:00,
2013-05-25 22:24:00,60.6,38.0,30.29,East,80,5.0,7.0,43,0.00,,SCT,0.00,0.00,VWS V14.01,2013-05-26 02:24:00,
2013-05-25 22:29:00,60.8,38.2,30.29,East,97,4.0,8.0,43,0.00,,SCT,0.00,0.00,VWS V14.01,2013-05-26 02:29:00,
2013-05-25 22:33:00,60.7,38.7,30.30,ESE,111,1.0,8.0,44,0.00,,SCT,0.00,0.00,VWS V14.01,2013-05-26 02:33:00,
2013-05-25 22:38:00,60.2,39.9,30.30,ESE,111,0.0,8.0,47,0.00,,SCT,0.00,0.00,VWS V14.01,2013-05-26 02:38:00,
2013-05-25 22:43:00,59.0,39.4,30.30,NNW,343,1.0,8.0,48,0.00,,SCT,0.00,0.00,VWS V14.01,2013-05-26 02:43:00,
2013-05-25 22:48:00,59.0,38.8,30.30,NW,323,3.0,8.0,47,0.00,,SCT,0.00,0.00,VWS V14.01,2013-05-26 02:48:00,
2013-05-25 22:53:00,59.0,38.3,30.30,NW,321,3.0,3.0,46,0.00,,SCT,0.00,0.00,VWS V14.01,2013-05-26 02:53:00,
2013-05-25 22:58:00,59.5,38.7,30.30,NNW,333,1.0,3.0,46,0.00,,SCT,0.00,0.00,VWS V14.01,2013-05-26 02:58:00,
2013-05-25 23:00:00,59.0,38.8,30.30,NW,321,3.0,8.0,47,0.00,,SCT,0.00,0.00,VWS V14.01,2013-05-26 03:00:00,
2013-05-25 23:03:00,59.6,38.8,30.30,NNW,333,0.0,3.0,46,0.00,,SCT,0.00,0.00,VWS V14.01,2013-05-26 03:03:00,
2013-05-25 23:08:00,59.5,38.2,30.30,NNW,333,0.0,3.0,45,0.00,,SCT,0.00,0.00,VWS V14.01,2013-05-26 03:08:00,
2013-05-25 23:13:00,59.3,38.5,30.30,NNW,333,0.0,3.0,46,0.00,,SCT,0.00,0.00,VWS V14.01,2013-05-26 03:13:00,
2013-05-25 23:18:00,59.5,38.7,30.30,NNW,333,0.0,3.0,46,0.00,,SCT,0.00,0.00,VWS V14.01,2013-05-26 03:18:00,
2013-05-25 23:23:00,59.5,38.7,30.30,NNW,333,1.0,3.0,46,0.00,,SCT,0.00,0.00,VWS V14.01,2013-05-26 03:23:00,
2013-05-25 23:28:00,59.5,39.3,30.30,NNW,335,2.0,3.0,47,0.00,,SCT,0.00,0.00,VWS V14.01,2013-05-26 03:28:00,
2013-05-25 23:33:00,59.1,38.9,30.31,NNW,335,0.0,3.0,47,0.00,,SCT,0.00,0.00,VWS V14.01,2013-05-26 03:33:00,
2013-05-25 23:38:00,59.1,38.9,30.31,NNW,336,3.0,4.0,47,0.00,,SCT,0.00,0.00,VWS V14.01,2013-05-26 03:38:00,
2013-05-25 23:43:00,59.1,38.9,30.31,NNW,336,1.0,4.0,47,0.00,,SCT,0.00,0.00,VWS V14.01,2013-05-26 03:43:00,
2013-05-25 23:48:00,58.7,39.6,30.31,NNW,338,2.0,4.0,49,0.00,,SCT,0.00,0.00,VWS V14.01,2013-05-26 03:48:00,
2013-05-25 23:53:00,58.2,39.7,30.31,ENE,68,5.0,6.0,50,0.00,,SCT,0.00,0.00,VWS V14.01,2013-05-26 03:53:00,
2013-05-25 23:58:00,58.1,40.1,30.30,ENE,75,3.0,6.0,51,0.00,,SCT,0.00,0.00,VWS V14.01,2013-05-26 03:58:00,